Cantua Creek, California
Current Conditions -  °F | °C
As of 3:56 AM on Sunday 21 Dec 2014 (Local Time) from KNLC Reporting Station
Overcast Overcast  
Wind Chill: 48°   Ceiling: 200
Heat Index: 48°   Visibility: NA
Dew Point: 48°   Wind: 0mph
Humidity: 100%   Direction: NA
Pressure: 30.27"   Gusts: NA
Location:  36.5°N, 120.32°W
Report Text: KNLC 211156Z AUTO 00000KT OVC002 09/09 A3027 RMK AO2 SLP251 70001 T00890089 10111 20089 50003 RVRNO $
Loading
Personal Weather Stations






























Interactive Weather Map New forecast layout! Learn more

10-Day Weather Forecast

Advertisements
Track Severe Weather on mobile